Data for 01/17/2009

Time Sea-Level Adjusted Pressure Absolute Pressure Temperature Relative Humidity Dew Point   
(mb) (inHg) (mb) (inHg) (C) (F) (%) (C) (F)
00:05 1031 30.45 860 25.4 -0.3 31.4 54 -8.6 16.6
00:10 1031 30.45 860 25.4 -0.1 31.9 52 -8.7 16.4
00:15 1031 30.45 860 25.4 0.1 32.1 52 -8.7 16.3
00:20 1031 30.45 860 25.4 0.5 32.9 49 -9.1 15.6
00:25 1031 30.45 860 25.4 0.9 33.5 47 -9.3 15.2
00:30 1031 30.45 860 25.4 0.8 33.4 49 -8.9 16
00:35 1031 30.45 860 25.4 0.5 32.9 50 -8.6 16.4
00:40 1031 30.45 860 25.4 0.1 32.2 52 -8.7 16.3
00:45 1031 30.45 860 25.4 -0.4 31.3 54 -8.5 16.7
00:50 1031 30.45 860 25.4 -1.3 29.7 58 -8.5 16.8
00:55 1031 30.45 860 25.4 -1 30.2 55 -8.9 16
01:00 1031 30.45 860 25.4 -0.3 31.4 54 -8.6 16.5
01:05 1031 30.45 860 25.4 -0.9 30.4 56 -8.6 16.4
01:10 1031 30.45 860 25.4 -0.6 30.9 55 -8.6 16.6
01:15 1031 30.45 860 25.4 -0.9 30.5 56 -8.5 16.6
01:20 1031 30.45 860 25.4 -1.2 29.8 56 -9 15.8
01:25 1031 30.45 860 25.4 -0.8 30.6 55 -8.7 16.3
01:30 1031 30.45 860 25.4 -0.9 30.4 55 -8.7 16.3
01:35 1031 30.45 860 25.4 -0.9 30.4 56 -8.6 16.5
01:40 1031 30.45 860 25.4 -1 30.2 55 -8.9 16
01:45 1031 30.45 860 25.4 -1.1 30.1 56 -8.8 16.2
01:50 1031 30.45 860 25.4 -1.1 30 56 -8.8 16.1
01:55 1031 30.45 860 25.4 -1 30.3 55 -8.9 16
02:00 1031 30.45 860 25.4 -1 30.2 56 -8.8 16.2
02:05 1031 30.45 860 25.4 -0.9 30.3 55 -8.9 16
02:10 1031 30.45 860 25.4 -1.3 29.6 57 -8.8 16.1
02:15 1031 30.45 860 25.4 -1.6 29.2 56 -9.3 15.2
02:20 1031 30.45 860 25.4 -1.1 30.1 53 -9.4 15.1
02:25 1031 30.45 860 25.4 -0.6 30.9 51 -9.5 14.8
02:30 1031 30.45 860 25.4 -0.2 31.6 50 -9.3 15.2
02:35 1031 30.45 860 25.4 -0.3 31.5 52 -8.9 16
02:40 1031 30.45 860 25.4 -1 30.2 55 -9 15.8
02:45 1031 30.45 860 25.4 -1 30.1 56 -8.8 16.1
02:50 1031 30.45 860 25.4 -1.1 30 53 -9.6 14.7
02:55 1031 30.45 860 25.4 -0.8 30.6 53 -9.3 15.3
03:00 1031 30.45 860 25.4 -1.1 30 53 -9.4 15
03:05 1031 30.45 860 25.4 -1.7 28.9 55 -9.7 14.5
03:10 1031 30.45 860 25.4 -1.5 29.3 56 -9.2 15.4
03:15 1031 30.45 860 25.4 -1.6 29.1 57 -9 15.8
03:20 1031 30.45 860 25.4 -1.5 29.2 57 -9.1 15.6
03:25 1031 30.45 860 25.4 -1.3 29.6 54 -9.6 14.8
03:30 1031 30.45 860 25.4 -1.3 29.6 54 -9.5 14.8
03:35 1031 30.45 860 25.4 -1.5 29.2 54 -9.7 14.5
03:40 1031 30.45 860 25.4 -1.7 29 55 -9.5 14.8
03:45 1031 30.45 860 25.4 -1.9 28.5 56 -9.6 14.6
03:50 1031 30.45 860 25.4 -1.6 29.1 53 -9.9 14.1
03:55 1031 30.45 860 25.4 -1.4 29.5 53 -9.9 14.2
04:00 1031 30.45 860 25.4 -1.5 29.3 52 -10.1 13.8
04:05 1031 30.45 860 25.4 -1.2 29.9 51 -10.1 13.7
04:10 1031 30.45 860 25.4 -1.2 29.9 51 -10 14
04:15 1031 30.45 860 25.4 -1.3 29.6 54 -9.5 14.8
04:20 1031 30.45 861 25.43 -1.3 29.6 55 -9.3 15.3
04:25 1031 30.45 861 25.43 -1.6 29.1 56 -9.2 15.4
04:30 1031 30.45 861 25.43 -2 28.5 57 -9.4 15.1
04:35 1031 30.45 861 25.43 -2.3 27.8 58 -9.6 14.7
04:40 1031 30.45 861 25.43 -2.8 26.9 58 -9.9 14.1
04:45 1031 30.45 861 25.43 -2.5 27.5 57 -10 14
04:50 1032 30.47 861 25.43 -2.3 27.8 58 -9.6 14.8
04:55 1032 30.47 861 25.43 -2.6 27.3 57 -9.9 14.2
05:00 1032 30.47 861 25.43 -2.6 27.2 55 -10.4 13.3
05:05 1032 30.47 861 25.43 -2.2 28 54 -10.3 13.5
05:10 1032 30.47 861 25.43 -2 28.4 53 -10.3 13.4
05:15 1032 30.47 861 25.43 -2 28.3 53 -10.5 13.2
05:20 1032 30.47 861 25.43 -2.3 27.8 55 -10.2 13.6
05:25 1032 30.47 861 25.43 -2.8 27 55 -10.6 13
05:30 1031 30.45 861 25.43 -2.8 27 55 -10.6 13
05:35 1031 30.45 861 25.43 -3 26.6 56 -10.6 12.8
05:40 1031 30.45 861 25.43 -2.6 27.3 55 -10.5 13.2
05:45 1032 30.47 861 25.43 -2.4 27.7 56 -10.1 13.9
05:50 1032 30.47 861 25.43 -2.7 27.2 59 -9.6 14.7
05:55 1032 30.47 861 25.43 -3.2 26.3 61 -9.6 14.7
06:00 1032 30.47 861 25.43 -3.2 26.2 59 -10.2 13.7
06:05 1032 30.47 861 25.43 -3 26.6 58 -10.2 13.6
06:10 1032 30.47 861 25.43 -3 26.7 58 -10.2 13.7
06:15 1032 30.47 861 25.43 -2.7 27.2 57 -10.1 13.7
06:20 1032 30.47 861 25.43 -2.5 27.4 56 -10.1 13.8
06:25 1032 30.47 861 25.43 -2.4 27.6 57 -9.9 14.2
06:30 1032 30.47 861 25.43 -2.6 27.3 57 -9.9 14.1
06:35 1032 30.47 861 25.43 -3 26.6 60 -9.7 14.6
06:40 1032 30.47 861 25.43 -3.6 25.5 62 -9.8 14.4
06:45 1032 30.47 861 25.43 -3.5 25.6 62 -9.8 14.4
06:50 1032 30.47 861 25.43 -3.2 26.2 62 -9.6 14.7
06:55 1032 30.47 861 25.43 -3.5 25.7 63 -9.6 14.6
07:00 1032 30.47 862 25.45 -3.3 26 59 -10.3 13.4
07:05 1032 30.47 861 25.43 -2.9 26.8 57 -10.2 13.6
07:10 1032 30.47 861 25.43 -2.6 27.3 56 -10.2 13.6
07:15 1032 30.47 861 25.43 -2.4 27.7 57 -9.9 14.2
07:20 1032 30.47 861 25.43 -2.6 27.3 56 -10.2 13.7
07:25 1032 30.47 861 25.43 -2 28.5 53 -10.2 13.6
07:30 1032 30.47 861 25.43 -1.7 29 53 -10 14
07:35 1032 30.47 861 25.43 -1.8 28.8 53 -10.2 13.6
07:40 1032 30.47 861 25.43 -2.6 27.3 58 -9.8 14.4
07:45 1032 30.47 861 25.43 -3.5 25.8 60 -10.1 13.9
07:50 1032 30.47 861 25.43 -3.6 25.6 59 -10.4 13.3
07:55 1032 30.47 861 25.43 -3.1 26.5 57 -10.5 13.1
08:00 1032 30.47 861 25.43 -2.5 27.4 55 -10.4 13.3
08:05 1032 30.47 861 25.43 -2 28.3 53 -10.3 13.4
08:10 1032 30.47 861 25.43 -2.3 27.9 55 -10.1 13.8
08:15 1032 30.47 861 25.43 -2.4 27.6 55 -10.2 13.6
08:20 1032 30.47 862 25.45 -2.6 27.3 57 -10 14
08:25 1032 30.47 862 25.45 -2.8 27 56 -10.3 13.5
08:30 1032 30.47 862 25.45 -2.5 27.4 54 -10.6 12.9
08:35 1033 30.5 862 25.45 -2 28.4 53 -10.3 13.4
08:40 1033 30.5 862 25.45 -2 28.3 54 -10.2 13.7
08:45 1033 30.5 862 25.45 -1.9 28.7 53 -10.3 13.4
08:50 1033 30.5 862 25.45 -1.3 29.6 51 -10.1 13.7
08:55 1033 30.5 862 25.45 -0.8 30.6 50 -9.8 14.3
09:00 1033 30.5 862 25.45 -0.6 30.9 50 -9.8 14.4
09:05 1033 30.5 862 25.45 -0.5 31.1 50 -9.6 14.7
09:10 1033 30.5 862 25.45 -0.6 30.9 50 -9.8 14.4
09:15 1033 30.5 862 25.45 -1.3 29.6 51 -10.1 13.8
09:20 1033 30.5 862 25.45 -1.1 30 50 -10.2 13.6
09:25 1033 30.5 862 25.45 -0.7 30.8 49 -10 14
09:30 1033 30.5 862 25.45 -0.5 31.1 49 -10 14
09:35 1033 30.5 862 25.45 -0.2 31.6 47 -10.1 13.8
09:40 1033 30.5 862 25.45 -0.1 31.7 48 -10 14
09:45 1033 30.5 862 25.45 -0.4 31.2 48 -10 13.9
09:50 1033 30.5 862 25.45 -0.8 30.5 52 -9.5 14.9
09:55 1033 30.5 862 25.45 -1.8 28.7 52 -10.3 13.4
10:00 1033 30.5 862 25.45 -1.1 30 50 -10.3 13.4
10:05 1033 30.5 862 25.45 -0.7 30.7 49 -10.1 13.8
10:10 1033 30.5 862 25.45 0 32.1 45 -10.5 13.2
10:15 1033 30.5 862 25.45 0.6 33.1 45 -9.9 14.1
10:20 1033 30.5 863 25.48 1 33.8 43 -10.3 13.5
10:25 1033 30.5 863 25.48 1.5 34.8 42 -10.1 13.9
10:30 1033 30.5 863 25.48 1.8 35.2 43 -9.5 14.9
10:35 1033 30.5 863 25.48 1.6 34.9 44 -9.3 15.2
10:40 1034 30.53 863 25.48 1.7 35 44 -9.2 15.4
10:45 1034 30.53 863 25.48 1.6 34.9 45 -9.1 15.7
10:50 1033 30.5 863 25.48 1.5 34.8 46 -9 15.9
10:55 1033 30.5 863 25.48 1.6 34.9 47 -8.6 16.6
11:00 1033 30.5 862 25.45 2.2 36 44 -8.7 16.4
11:05 1033 30.5 862 25.45 2.6 36.6 43 -8.8 16.2
11:10 1033 30.5 862 25.45 2.6 36.6 44 -8.4 17
11:15 1033 30.5 862 25.45 2.7 36.9 41 -9.2 15.4
11:20 1033 30.5 862 25.45 2.9 37.2 43 -8.5 16.7
11:25 1033 30.5 863 25.48 2.4 36.3 44 -8.5 16.7
11:30 1033 30.5 863 25.48 2.5 36.5 43 -8.8 16.1
11:35 1033 30.5 862 25.45 3.4 38.2 41 -8.6 16.5
11:40 1033 30.5 862 25.45 3.7 38.6 41 -8.3 17.1
11:45 1033 30.5 862 25.45 3.8 38.8 42 -7.9 17.7
11:50 1033 30.5 862 25.45 3.7 38.7 40 -8.6 16.6
11:55 1033 30.5 862 25.45 4 39.1 38 -9 15.9
12:00 1033 30.5 862 25.45 4.7 40.5 37 -8.8 16.2
12:05 1033 30.5 862 25.45 4.5 40 37 -8.9 15.9
12:10 1033 30.5 862 25.45 4 39.2 38 -9 15.9
12:15 1033 30.5 862 25.45 4.1 39.3 39 -8.6 16.5
12:20 1033 30.5 862 25.45 3.5 38.4 40 -8.7 16.3
12:25 1033 30.5 862 25.45 3.4 38.2 40 -9.1 15.7
12:30 1033 30.5 862 25.45 3.5 38.3 41 -8.6 16.5
12:35 1033 30.5 862 25.45 2.7 36.9 43 -8.7 16.3
12:40 1033 30.5 862 25.45 3 37.4 40 -9.4 15.1
12:45 1033 30.5 862 25.45 4 39.2 38 -9.2 15.4
12:50 1033 30.5 862 25.45 4.7 40.4 35 -9.7 14.6
12:55 1033 30.5 862 25.45 5 41.1 34 -9.7 14.5
13:00 1032 30.47 862 25.45 5.1 41.2 35 -9.1 15.6
13:05 1032 30.47 862 25.45 5.9 42.7 32 -9.5 14.8
13:10 1032 30.47 861 25.43 6.4 43.5 32 -9.1 15.6
13:15 1032 30.47 861 25.43 6.6 44 31 -9.2 15.5
13:20 1032 30.47 861 25.43 6.5 43.7 33 -8.7 16.3
13:25 1032 30.47 861 25.43 6.3 43.3 32 -9.2 15.4
13:30 1032 30.47 861 25.43 6.4 43.5 32 -9 15.7
13:35 1032 30.47 861 25.43 6.6 43.8 31 -9.4 15
13:40 1032 30.47 861 25.43 6.9 44.4 31 -9.2 15.4
13:45 1032 30.47 861 25.43 7 44.6 31 -9.1 15.7
13:50 1032 30.47 861 25.43 7 44.5 31 -8.8 16.1
13:55 1032 30.47 861 25.43 6.6 44 32 -8.8 16.1
14:00 1032 30.47 861 25.43 6.3 43.4 35 -8.1 17.4
14:05 1032 30.47 861 25.43 6.5 43.7 32 -8.8 16.1
14:10 1032 30.47 861 25.43 6.8 44.2 32 -8.7 16.3
14:15 1032 30.47 861 25.43 7 44.5 33 -8.1 17.4
14:20 1032 30.47 861 25.43 7 44.6 32 -8.6 16.5
14:25 1032 30.47 861 25.43 6.9 44.4 34 -8 17.6
14:30 1032 30.47 861 25.43 6.6 43.9 35 -7.9 17.7
14:35 1032 30.47 861 25.43 6.9 44.5 34 -7.9 17.7
14:40 1032 30.47 861 25.43 6.8 44.3 35 -7.7 18.2
14:45 1032 30.47 861 25.43 6.3 43.3 35 -8 17.6
14:50 1032 30.47 861 25.43 6.4 43.6 33 -8.7 16.4
14:55 1032 30.47 861 25.43 7.2 44.9 33 -8.2 17.2
15:00 1032 30.47 861 25.43 7.2 45 33 -7.9 17.8
15:05 1032 30.47 861 25.43 6.7 44 36 -7.4 18.6
15:10 1032 30.47 861 25.43 6.3 43.4 35 -8 17.5
15:15 1032 30.47 861 25.43 6.3 43.4 36 -7.6 18.3
15:20 1032 30.47 861 25.43 6.3 43.4 35 -8.1 17.5
15:25 1032 30.47 861 25.43 6.2 43.2 35 -8 17.6
15:30 1032 30.47 861 25.43 6.5 43.7 34 -8.2 17.2
15:35 1032 30.47 861 25.43 6.6 43.9 35 -7.9 17.7
15:40 1032 30.47 861 25.43 6.6 43.9 35 -7.8 18
15:45 1032 30.47 861 25.43 6.7 44.1 36 -7.3 18.8
15:50 1032 30.47 861 25.43 6.8 44.3 34 -7.8 18
15:55 1032 30.47 861 25.43 6.8 44.3 35 -7.5 18.4
16:00 1032 30.47 861 25.43 6.4 43.4 37 -7.2 19
16:05 1032 30.47 861 25.43 6.2 43.2 36 -7.7 18.1
16:10 1032 30.47 861 25.43 6.5 43.8 35 -7.8 18
16:15 1032 30.47 861 25.43 6.5 43.7 36 -7.7 18.2
16:20 1032 30.47 861 25.43 6.5 43.7 35 -8 17.7
16:25 1032 30.47 861 25.43 6.4 43.6 36 -7.7 18.1
16:30 1032 30.47 861 25.43 5.8 42.4 38 -7.6 18.3
16:35 1032 30.47 861 25.43 5.3 41.5 39 -7.7 18.2
16:40 1032 30.47 861 25.43 5 41 41 -7.2 19
16:45 1032 30.47 861 25.43 4.7 40.5 40 -7.6 18.2
16:50 1032 30.47 861 25.43 4.6 40.3 40 -7.9 17.8
16:55 1032 30.47 861 25.43 4.1 39.3 41 -7.9 17.8
17:00 1032 30.47 861 25.43 4.2 39.5 41 -7.9 17.8
17:05 1032 30.47 861 25.43 3.9 39 44 -7.2 19
17:10 1032 30.47 861 25.43 3.2 37.8 46 -7.2 19.1
17:15 1032 30.47 861 25.43 2.7 36.9 48 -7.3 18.9
17:20 1032 30.47 861 25.43 2.6 36.7 49 -7.1 19.2
17:25 1032 30.47 861 25.43 2.5 36.5 49 -7.2 19.1
17:30 1032 30.47 861 25.43 2.5 36.4 48 -7.5 18.4
17:35 1032 30.47 861 25.43 2.3 36.2 48 -7.6 18.3
17:40 1032 30.47 861 25.43 1.9 35.4 51 -7.3 18.9
17:45 1032 30.47 861 25.43 2 35.5 50 -7.4 18.8
17:50 1032 30.47 861 25.43 2.1 35.8 49 -7.6 18.3
17:55 1032 30.47 861 25.43 2.2 35.9 49 -7.5 18.6
18:00 1032 30.47 861 25.43 2.1 35.7 50 -7.4 18.7
18:05 1032 30.47 861 25.43 1.7 35 51 -7.4 18.7
18:10 1032 30.47 861 25.43 1.4 34.5 52 -7.4 18.7
18:15 1032 30.47 861 25.43 1.1 33.9 50 -8.2 17.2
18:20 1032 30.47 861 25.43 1 33.8 49 -8.5 16.8
18:25 1032 30.47 861 25.43 0.9 33.6 48 -8.8 16.1
18:30 1032 30.47 861 25.43 0.7 33.3 48 -9.2 15.5
18:35 1032 30.47 861 25.43 0.7 33.2 47 -9.3 15.3
18:40 1032 30.47 861 25.43 0.7 33.3 46 -9.6 14.7
18:45 1032 30.47 861 25.43 0.9 33.7 45 -9.7 14.5
18:50 1032 30.47 861 25.43 1 33.8 49 -8.5 16.7
18:55 1032 30.47 861 25.43 0.9 33.7 51 -8.2 17.3
19:00 1032 30.47 861 25.43 0.5 32.8 53 -7.9 17.7
19:05 1032 30.47 862 25.45 0.2 32.3 53 -8.3 17.1
19:10 1032 30.47 862 25.45 0.1 32.3 55 -7.9 17.8
19:15 1032 30.47 862 25.45 -0.4 31.2 53 -8.8 16.2
19:20 1032 30.47 862 25.45 -0 31.9 52 -8.9 16
19:25 1032 30.47 862 25.45 0 32.1 51 -9 15.7
19:30 1032 30.47 862 25.45 -0.4 31.3 52 -9.2 15.4
19:35 1032 30.47 862 25.45 -0.4 31.3 53 -8.8 16.1
19:40 1032 30.47 862 25.45 -0.6 30.9 54 -8.8 16.2
19:45 1032 30.47 862 25.45 -0.8 30.6 52 -9.4 15.1
19:50 1032 30.47 862 25.45 -0.5 31.1 53 -9 15.9
19:55 1033 30.5 862 25.45 -0.8 30.6 54 -8.9 16
20:00 1033 30.5 862 25.45 -1 30.2 55 -8.9 15.9
20:05 1033 30.5 862 25.45 -1 30.2 55 -8.9 15.9
20:10 1033 30.5 862 25.45 -1.2 29.8 56 -8.8 16.1
20:15 1033 30.5 862 25.45 -1.7 29 56 -9.2 15.4
20:20 1033 30.5 862 25.45 -1.4 29.4 54 -9.6 14.6
20:25 1033 30.5 862 25.45 -1.3 29.7 54 -9.5 14.9
20:30 1033 30.5 862 25.45 -1.5 29.2 55 -9.5 15
20:35 1032 30.47 862 25.45 -1.5 29.4 54 -9.6 14.8
20:40 1032 30.47 862 25.45 -1.2 29.8 53 -9.6 14.7
20:45 1033 30.5 862 25.45 -1.3 29.7 55 -9.3 15.3
20:50 1033 30.5 862 25.45 -2 28.5 57 -9.5 15
20:55 1033 30.5 862 25.45 -1.4 29.4 54 -9.6 14.7
21:00 1033 30.5 862 25.45 -1.2 29.8 54 -9.3 15.2
21:05 1033 30.5 862 25.45 -0.5 31.1 50 -9.8 14.4
21:10 1033 30.5 862 25.45 -0.3 31.5 52 -9.1 15.7
21:15 1033 30.5 862 25.45 -0.8 30.5 53 -9.3 15.2
21:20 1033 30.5 862 25.45 -1.1 30 54 -9.3 15.3
21:25 1033 30.5 862 25.45 -1.4 29.4 54 -9.5 14.9
21:30 1033 30.5 862 25.45 -1.6 29.2 55 -9.5 14.9
21:35 1033 30.5 862 25.45 -1.7 28.9 55 -9.6 14.7
21:40 1033 30.5 862 25.45 -1.6 29.2 54 -9.7 14.6
21:45 1033 30.5 862 25.45 -1.4 29.4 54 -9.7 14.6
21:50 1033 30.5 862 25.45 -1.6 29 54 -9.8 14.4
21:55 1033 30.5 862 25.45 -1.4 29.4 53 -9.7 14.5
22:00 1033 30.5 862 25.45 -1.4 29.5 53 -9.7 14.6
22:05 1033 30.5 862 25.45 -1.5 29.2 53 -9.9 14.1
22:10 1033 30.5 862 25.45 -1.6 29.1 54 -9.8 14.4
22:15 1032 30.47 862 25.45 -1.5 29.4 53 -9.9 14.2
22:20 1033 30.5 862 25.45 -1.2 29.8 54 -9.4 15
22:25 1033 30.5 862 25.45 -1.7 28.9 55 -9.5 14.8
22:30 1033 30.5 862 25.45 -2 28.3 57 -9.5 14.8
22:35 1033 30.5 862 25.45 -2.3 27.8 58 -9.6 14.7
22:40 1033 30.5 862 25.45 -2.6 27.3 59 -9.6 14.8
22:45 1033 30.5 862 25.45 -3.6 25.6 63 -9.5 14.8
22:50 1033 30.5 862 25.45 -3.6 25.5 61 -10 14
22:55 1033 30.5 862 25.45 -3 26.6 59 -10 14
23:00 1033 30.5 862 25.45 -2.1 28.3 55 -10 14
23:05 1033 30.5 862 25.45 -1.9 28.7 55 -9.7 14.5
23:10 1033 30.5 862 25.45 -1.5 29.2 52 -10.1 13.9
23:15 1033 30.5 862 25.45 -1.2 29.9 52 -9.9 14.2
23:20 1033 30.5 862 25.45 -1.3 29.6 54 -9.6 14.8
23:25 1033 30.5 862 25.45 -2.1 28.2 57 -9.6 14.7
23:30 1033 30.5 862 25.45 -2.7 27.1 60 -9.6 14.8
23:35 1033 30.5 862 25.45 -3 26.5 60 -9.8 14.3
23:40 1033 30.5 862 25.45 -2.1 28.2 54 -10.2 13.6
23:45 1033 30.5 862 25.45 -1.3 29.6 52 -9.9 14.1
23:50 1033 30.5 862 25.45 -1.2 29.9 52 -9.8 14.4
23:55 1033 30.5 862 25.45 -1.7 28.9 56 -9.3 15.3
24:00 1033 30.5 862 25.45 -2.5 27.5 57 -9.8 14.3